sensor_id;sensor_type;location;lat;lon;timestamp;pressure;altitude;pressure_sealevel;temperature;humidity
69058;BME280;56128;37.534;-122.308;2022-10-16T00:02:07;101094.59;;;16.05;86.93
69058;BME280;56128;37.534;-122.308;2022-10-16T00:04:33;101091.50;;;16.00;87.33
69058;BME280;56128;37.534;-122.308;2022-10-16T00:07:00;101076.44;;;15.88;87.44
69058;BME280;56128;37.534;-122.308;2022-10-16T00:09:26;101093.78;;;15.95;87.70
69058;BME280;56128;37.534;-122.308;2022-10-16T00:11:52;101093.22;;;15.92;87.67
69058;BME280;56128;37.534;-122.308;2022-10-16T00:14:18;101077.03;;;15.82;87.87
69058;BME280;56128;37.534;-122.308;2022-10-16T00:16:44;101086.06;;;15.81;88.42
69058;BME280;56128;37.534;-122.308;2022-10-16T00:19:11;101090.06;;;15.77;88.67
69058;BME280;56128;37.534;-122.308;2022-10-16T00:21:41;101084.50;;;15.68;89.05
69058;BME280;56128;37.534;-122.308;2022-10-16T00:24:09;101087.78;;;15.62;89.25
69058;BME280;56128;37.534;-122.308;2022-10-16T00:26:37;101077.84;;;15.53;89.67
69058;BME280;56128;37.534;-122.308;2022-10-16T00:29:04;101089.63;;;15.52;89.53
69058;BME280;56128;37.534;-122.308;2022-10-16T00:31:30;101092.63;;;15.49;89.14
69058;BME280;56128;37.534;-122.308;2022-10-16T00:33:57;101088.38;;;15.46;89.08
69058;BME280;56128;37.534;-122.308;2022-10-16T00:36:24;101096.88;;;15.41;89.21
69058;BME280;56128;37.534;-122.308;2022-10-16T00:38:53;101084.94;;;15.34;89.71
69058;BME280;56128;37.534;-122.308;2022-10-16T00:41:21;101103.53;;;15.37;89.67
69058;BME280;56128;37.534;-122.308;2022-10-16T00:48:49;101097.41;;;15.25;91.21
69058;BME280;56128;37.534;-122.308;2022-10-16T00:51:18;101100.97;;;15.26;91.51
69058;BME280;56128;37.534;-122.308;2022-10-16T00:53:46;101113.88;;;15.22;91.62
69058;BME280;56128;37.534;-122.308;2022-10-16T00:56:12;101097.84;;;15.21;92.02
69058;BME280;56128;37.534;-122.308;2022-10-16T00:58:38;101101.09;;;15.15;92.21
69058;BME280;56128;37.534;-122.308;2022-10-16T01:01:05;101106.50;;;15.15;92.60
69058;BME280;56128;37.534;-122.308;2022-10-16T01:03:33;101108.47;;;15.13;93.08
69058;BME280;56128;37.534;-122.308;2022-10-16T01:06:11;101112.56;;;15.07;93.43
69058;BME280;56128;37.534;-122.308;2022-10-16T01:11:47;101117.78;;;14.99;94.34
69058;BME280;56128;37.534;-122.308;2022-10-16T01:14:26;101112.94;;;14.92;93.98
69058;BME280;56128;37.534;-122.308;2022-10-16T01:17:00;101116.03;;;14.88;94.35
69058;BME280;56128;37.534;-122.308;2022-10-16T01:22:18;101115.75;;;14.81;94.75
69058;BME280;56128;37.534;-122.308;2022-10-16T01:24:48;101113.47;;;14.76;94.59
69058;BME280;56128;37.534;-122.308;2022-10-16T01:27:25;101118.25;;;14.73;94.72
69058;BME280;56128;37.534;-122.308;2022-10-16T01:32:41;101117.66;;;14.69;95.01
69058;BME280;56128;37.534;-122.308;2022-10-16T01:38:10;101116.75;;;14.59;94.99
69058;BME280;56128;37.534;-122.308;2022-10-16T01:40:42;101112.50;;;14.56;95.16
69058;BME280;56128;37.534;-122.308;2022-10-16T01:43:17;101110.91;;;14.54;95.48
69058;BME280;56128;37.534;-122.308;2022-10-16T01:45:46;101118.16;;;14.53;96.12
69058;BME280;56128;37.534;-122.308;2022-10-16T01:48:16;101116.97;;;14.46;95.80
69058;BME280;56128;37.534;-122.308;2022-10-16T01:50:56;101132.75;;;14.51;96.12
69058;BME280;56128;37.534;-122.308;2022-10-16T01:53:24;101124.91;;;14.48;95.93
69058;BME280;56128;37.534;-122.308;2022-10-16T01:55:52;101133.13;;;14.46;96.43
69058;BME280;56128;37.534;-122.308;2022-10-16T01:58:21;101133.97;;;14.47;96.48
69058;BME280;56128;37.534;-122.308;2022-10-16T02:00:48;101124.41;;;14.33;96.71
69058;BME280;56128;37.534;-122.308;2022-10-16T02:03:16;101140.19;;;14.37;96.79
69058;BME280;56128;37.534;-122.308;2022-10-16T02:05:52;101127.25;;;14.31;96.84
69058;BME280;56128;37.534;-122.308;2022-10-16T02:08:24;101125.38;;;14.32;96.95
69058;BME280;56128;37.534;-122.308;2022-10-16T02:10:57;101131.38;;;14.35;96.39
69058;BME280;56128;37.534;-122.308;2022-10-16T02:15:53;101144.81;;;14.35;97.30
69058;BME280;56128;37.534;-122.308;2022-10-16T02:18:20;101146.16;;;14.41;97.35
69058;BME280;56128;37.534;-122.308;2022-10-16T02:20:52;101148.69;;;14.42;97.08
69058;BME280;56128;37.534;-122.308;2022-10-16T02:23:50;101147.13;;;14.40;97.19
69058;BME280;56128;37.534;-122.308;2022-10-16T02:26:17;101160.59;;;14.40;96.94
69058;BME280;56128;37.534;-122.308;2022-10-16T02:28:50;101154.94;;;14.43;97.40
69058;BME280;56128;37.534;-122.308;2022-10-16T02:31:23;101150.94;;;14.37;97.12
69058;BME280;56128;37.534;-122.308;2022-10-16T02:33:53;101155.06;;;14.41;97.34
69058;BME280;56128;37.534;-122.308;2022-10-16T02:36:21;101149.22;;;14.36;97.50
69058;BME280;56128;37.534;-122.308;2022-10-16T02:38:47;101159.16;;;14.36;98.10
69058;BME280;56128;37.534;-122.308;2022-10-16T02:41:14;101156.00;;;14.31;98.25
69058;BME280;56128;37.534;-122.308;2022-10-16T02:43:40;101145.56;;;14.37;98.31
69058;BME280;56128;37.534;-122.308;2022-10-16T02:46:07;101142.66;;;14.29;98.40
69058;BME280;56128;37.534;-122.308;2022-10-16T02:48:33;101149.31;;;14.25;98.74
69058;BME280;56128;37.534;-122.308;2022-10-16T02:51:00;101157.66;;;14.22;98.92
69058;BME280;56128;37.534;-122.308;2022-10-16T02:53:26;101158.88;;;14.18;99.15
69058;BME280;56128;37.534;-122.308;2022-10-16T02:55:52;101160.59;;;14.19;99.16
69058;BME280;56128;37.534;-122.308;2022-10-16T02:58:19;101164.00;;;14.21;99.87
69058;BME280;56128;37.534;-122.308;2022-10-16T03:00:45;101168.41;;;14.22;99.79
69058;BME280;56128;37.534;-122.308;2022-10-16T03:03:11;101156.72;;;14.11;99.72
69058;BME280;56128;37.534;-122.308;2022-10-16T03:05:38;101160.97;;;14.14;100.00
69058;BME280;56128;37.534;-122.308;2022-10-16T03:08:04;101160.13;;;14.13;100.00
69058;BME280;56128;37.534;-122.308;2022-10-16T03:10:30;101167.38;;;14.13;100.00
69058;BME280;56128;37.534;-122.308;2022-10-16T03:12:56;101159.22;;;14.03;100.00
69058;BME280;56128;37.534;-122.308;2022-10-16T03:15:22;101171.41;;;14.07;100.00
69058;BME280;56128;37.534;-122.308;2022-10-16T03:17:48;101165.06;;;14.08;100.00
69058;BME280;56128;37.534;-122.308;2022-10-16T03:20:15;101168.47;;;14.10;100.00
69058;BME280;56128;37.534;-122.308;2022-10-16T03:22:41;101166.88;;;14.08;100.00
69058;BME280;56128;37.534;-122.308;2022-10-16T03:25:07;101167.28;;;14.03;100.00
69058;BME280;56128;37.534;-122.308;2022-10-16T03:27:33;101171.41;;;14.07;100.00
69058;BME280;56128;37.534;-122.308;2022-10-16T03:29:59;101165.44;;;14.04;100.00
69058;BME280;56128;37.534;-122.308;2022-10-16T03:32:26;101173.50;;;14.04;100.00
69058;BME280;56128;37.534;-122.308;2022-10-16T03:34:54;101169.97;;;14.03;100.00
69058;BME280;56128;37.534;-122.308;2022-10-16T03:37:22;101180.13;;;14.00;100.00
69058;BME280;56128;37.534;-122.308;2022-10-16T03:39:48;101177.31;;;14.01;100.00
69058;BME280;56128;37.534;-122.308;2022-10-16T03:42:14;101183.06;;;13.96;100.00
69058;BME280;56128;37.534;-122.308;2022-10-16T03:44:40;101171.47;;;13.96;100.00
69058;BME280;56128;37.534;-122.308;2022-10-16T03:47:06;101179.03;;;14.02;100.00
69058;BME280;56128;37.534;-122.308;2022-10-16T03:49:32;101175.88;;;13.97;100.00
69058;BME280;56128;37.534;-122.308;2022-10-16T03:51:58;101166.47;;;13.91;100.00
69058;BME280;56128;37.534;-122.308;2022-10-16T03:54:24;101182.84;;;14.00;100.00
69058;BME280;56128;37.534;-122.308;2022-10-16T03:56:51;101166.47;;;13.91;100.00
69058;BME280;56128;37.534;-122.308;2022-10-16T03:59:17;101170.50;;;13.97;100.00
69058;BME280;56128;37.534;-122.308;2022-10-16T04:01:43;101184.66;;;13.99;100.00
69058;BME280;56128;37.534;-122.308;2022-10-16T04:04:09;101190.03;;;13.99;100.00
69058;BME280;56128;37.534;-122.308;2022-10-16T04:06:35;101184.53;;;14.01;100.00
69058;BME280;56128;37.534;-122.308;2022-10-16T04:09:01;101180.50;;;13.95;100.00
69058;BME280;56128;37.534;-122.308;2022-10-16T04:11:28;101190.63;;;14.03;100.00
69058;BME280;56128;37.534;-122.308;2022-10-16T04:13:54;101188.69;;;14.05;100.00
69058;BME280;56128;37.534;-122.308;2022-10-16T04:16:20;101186.97;;;14.04;100.00
69058;BME280;56128;37.534;-122.308;2022-10-16T04:18:46;101205.28;;;14.10;99.75
69058;BME280;56128;37.534;-122.308;2022-10-16T04:21:12;101198.66;;;14.14;99.05
69058;BME280;56128;37.534;-122.308;2022-10-16T04:23:38;101204.16;;;14.12;98.97
69058;BME280;56128;37.534;-122.308;2022-10-16T04:26:05;101199.31;;;14.06;99.18
69058;BME280;56128;37.534;-122.308;2022-10-16T04:28:31;101201.63;;;14.11;98.54
69058;BME280;56128;37.534;-122.308;2022-10-16T04:30:57;101213.34;;;14.10;97.84
69058;BME280;56128;37.534;-122.308;2022-10-16T04:33:24;101220.06;;;14.16;97.89
69058;BME280;56128;37.534;-122.308;2022-10-16T04:35:57;101206.03;;;14.12;97.96
69058;BME280;56128;37.534;-122.308;2022-10-16T04:38:23;101220.78;;;14.18;97.98
69058;BME280;56128;37.534;-122.308;2022-10-16T04:40:49;101219.66;;;14.20;97.48
69058;BME280;56128;37.534;-122.308;2022-10-16T04:43:15;101218.53;;;14.23;97.33
69058;BME280;56128;37.534;-122.308;2022-10-16T04:45:41;101220.25;;;14.24;97.37
69058;BME280;56128;37.534;-122.308;2022-10-16T04:48:07;101220.25;;;14.24;97.17
69058;BME280;56128;37.534;-122.308;2022-10-16T04:50:34;101226.50;;;14.24;97.26
69058;BME280;56128;37.534;-122.308;2022-10-16T04:53:00;101231.75;;;14.26;96.82
69058;BME280;56128;37.534;-122.308;2022-10-16T04:55:26;101220.53;;;14.21;96.95
69058;BME280;56128;37.534;-122.308;2022-10-16T04:57:52;101237.00;;;14.27;97.24
69058;BME280;56128;37.534;-122.308;2022-10-16T05:00:18;101237.34;;;14.34;97.24
69058;BME280;56128;37.534;-122.308;2022-10-16T05:02:44;101244.44;;;14.35;97.33
69058;BME280;56128;37.534;-122.308;2022-10-16T05:05:11;101246.88;;;14.38;97.50
69058;BME280;56128;37.534;-122.308;2022-10-16T05:07:37;101239.78;;;14.37;97.45
69058;BME280;56128;37.534;-122.308;2022-10-16T05:10:03;101253.56;;;14.44;96.77
69058;BME280;56128;37.534;-122.308;2022-10-16T05:12:30;101244.78;;;14.42;96.80
69058;BME280;56128;37.534;-122.308;2022-10-16T05:14:56;101247.41;;;14.53;96.79
69058;BME280;56128;37.534;-122.308;2022-10-16T05:17:24;101255.50;;;14.53;96.50
69058;BME280;56128;37.534;-122.308;2022-10-16T05:19:51;101251.09;;;14.52;96.55
69058;BME280;56128;37.534;-122.308;2022-10-16T05:22:17;101246.00;;;14.59;95.23
69058;BME280;56128;37.534;-122.308;2022-10-16T05:24:43;101253.84;;;14.62;95.17
69058;BME280;56128;37.534;-122.308;2022-10-16T05:27:10;101256.06;;;14.68;95.14
69058;BME280;56128;37.534;-122.308;2022-10-16T05:29:37;101241.84;;;14.66;94.68
69058;BME280;56128;37.534;-122.308;2022-10-16T05:32:03;101265.19;;;14.77;94.25
69058;BME280;56128;37.534;-122.308;2022-10-16T05:34:29;101260.63;;;14.77;94.60
69058;BME280;56128;37.534;-122.308;2022-10-16T05:36:55;101251.56;;;14.79;94.21
69058;BME280;56128;37.534;-122.308;2022-10-16T05:39:21;101254.97;;;14.81;94.70
69058;BME280;56128;37.534;-122.308;2022-10-16T05:41:49;101252.75;;;14.86;94.18
69058;BME280;56128;37.534;-122.308;2022-10-16T05:44:16;101255.44;;;14.86;94.15
69058;BME280;56128;37.534;-122.308;2022-10-16T05:46:42;101255.75;;;14.92;93.02
69058;BME280;56128;37.534;-122.308;2022-10-16T05:49:08;101239.97;;;14.88;93.17
69058;BME280;56128;37.534;-122.308;2022-10-16T05:51:34;101256.34;;;14.96;93.24
69058;BME280;56128;37.534;-122.308;2022-10-16T05:54:00;101259.03;;;14.96;93.12
69058;BME280;56128;37.534;-122.308;2022-10-16T05:56:26;101242.88;;;14.96;92.71
69058;BME280;56128;37.534;-122.308;2022-10-16T05:58:53;101252.13;;;15.03;92.08
69058;BME280;56128;37.534;-122.308;2022-10-16T06:01:19;101248.31;;;15.06;92.53
69058;BME280;56128;37.534;-122.308;2022-10-16T06:03:46;101238.78;;;15.02;91.77
69058;BME280;56128;37.534;-122.308;2022-10-16T06:06:17;101261.66;;;15.07;92.12
69058;BME280;56128;37.534;-122.308;2022-10-16T06:08:45;101258.22;;;15.05;92.41
69058;BME280;56128;37.534;-122.308;2022-10-16T06:11:19;101262.78;;;15.05;92.79
69058;BME280;56128;37.534;-122.308;2022-10-16T06:13:53;101266.16;;;15.07;92.36
69058;BME280;56128;37.534;-122.308;2022-10-16T06:16:19;101260.91;;;15.05;92.96
69058;BME280;56128;37.534;-122.308;2022-10-16T06:18:46;101256.25;;;15.07;92.35
69058;BME280;56128;37.534;-122.308;2022-10-16T06:21:16;101266.06;;;15.08;92.36
69058;BME280;56128;37.534;-122.308;2022-10-16T06:23:42;101265.91;;;15.10;91.43
69058;BME280;56128;37.534;-122.308;2022-10-16T06:26:11;101261.25;;;15.12;91.30
69058;BME280;56128;37.534;-122.308;2022-10-16T06:28:38;101273.63;;;15.15;91.31
69058;BME280;56128;37.534;-122.308;2022-10-16T06:31:06;101256.84;;;15.11;91.84
69058;BME280;56128;37.534;-122.308;2022-10-16T06:33:33;101257.44;;;15.15;91.23
69058;BME280;56128;37.534;-122.308;2022-10-16T06:36:11;101262.69;;;15.16;91.67
69058;BME280;56128;37.534;-122.308;2022-10-16T06:38:38;101262.69;;;15.16;91.58
69058;BME280;56128;37.534;-122.308;2022-10-16T06:41:05;101256.31;;;15.17;90.61
69058;BME280;56128;37.534;-122.308;2022-10-16T06:43:32;101246.13;;;15.21;90.61
69058;BME280;56128;37.534;-122.308;2022-10-16T06:46:01;101256.16;;;15.19;90.71
69058;BME280;56128;37.534;-122.308;2022-10-16T06:48:28;101255.19;;;15.20;90.73
69058;BME280;56128;37.534;-122.308;2022-10-16T06:51:22;101258.47;;;15.23;90.84
69058;BME280;56128;37.534;-122.308;2022-10-16T06:53:51;101248.53;;;15.24;91.13
69058;BME280;56128;37.534;-122.308;2022-10-16T06:56:25;101254.91;;;15.23;91.14
69058;BME280;56128;37.534;-122.308;2022-10-16T06:58:52;101254.06;;;15.22;90.53
69058;BME280;56128;37.534;-122.308;2022-10-16T07:01:21;101261.16;;;15.23;90.68
69058;BME280;56128;37.534;-122.308;2022-10-16T07:03:48;101262.72;;;15.26;90.92
69058;BME280;56128;37.534;-122.308;2022-10-16T07:06:17;101261.72;;;15.27;90.47
69058;BME280;56128;37.534;-122.308;2022-10-16T07:08:45;101262.00;;;15.24;90.22
69058;BME280;56128;37.534;-122.308;2022-10-16T07:11:16;101265.44;;;15.26;90.21
69058;BME280;56128;37.534;-122.308;2022-10-16T07:13:44;101263.72;;;15.25;90.36
69058;BME280;56128;37.534;-122.308;2022-10-16T07:16:16;101265.16;;;15.29;90.40
69058;BME280;56128;37.534;-122.308;2022-10-16T07:18:43;101259.44;;;15.22;90.73
69058;BME280;56128;37.534;-122.308;2022-10-16T07:21:21;101268.81;;;15.28;90.95
69058;BME280;56128;37.534;-122.308;2022-10-16T07:23:51;101256.91;;;15.21;90.44
69058;BME280;56128;37.534;-122.308;2022-10-16T07:26:18;101264.41;;;15.27;90.21
69058;BME280;56128;37.534;-122.308;2022-10-16T07:28:44;101262.00;;;15.24;90.47
69058;BME280;56128;37.534;-122.308;2022-10-16T07:31:13;101266.41;;;15.25;90.73
69058;BME280;56128;37.534;-122.308;2022-10-16T07:33:41;101275.09;;;15.29;90.51
69058;BME280;56128;37.534;-122.308;2022-10-16T07:36:08;101270.81;;;15.26;90.61
69058;BME280;56128;37.534;-122.308;2022-10-16T07:38:34;101259.31;;;15.24;89.99
69058;BME280;56128;37.534;-122.308;2022-10-16T07:41:03;101270.53;;;15.29;90.04
69058;BME280;56128;37.534;-122.308;2022-10-16T07:43:30;101274.94;;;15.30;90.06
69058;BME280;56128;37.534;-122.308;2022-10-16T07:45:56;101275.09;;;15.29;90.09
69058;BME280;56128;37.534;-122.308;2022-10-16T07:48:24;101272.41;;;15.29;90.02
69058;BME280;56128;37.534;-122.308;2022-10-16T07:50:52;101267.13;;;15.27;90.19
69058;BME280;56128;37.534;-122.308;2022-10-16T07:53:18;101275.94;;;15.29;89.73
69058;BME280;56128;37.534;-122.308;2022-10-16T07:55:44;101264.41;;;15.27;89.87
69058;BME280;56128;37.534;-122.308;2022-10-16T07:58:10;101258.03;;;15.28;90.02
69058;BME280;56128;37.534;-122.308;2022-10-16T08:00:37;101270.28;;;15.32;89.57
69058;BME280;56128;37.534;-122.308;2022-10-16T08:03:03;101278.22;;;15.34;89.73
69058;BME280;56128;37.534;-122.308;2022-10-16T08:05:31;101278.22;;;15.34;89.79
69058;BME280;56128;37.534;-122.308;2022-10-16T08:07:59;101274.81;;;15.32;89.72
69058;BME280;56128;37.534;-122.308;2022-10-16T08:10:26;101278.38;;;15.32;89.67
69058;BME280;56128;37.534;-122.308;2022-10-16T08:12:53;101279.34;;;15.31;89.99
69058;BME280;56128;37.534;-122.308;2022-10-16T08:15:20;101286.47;;;15.32;89.57
69058;BME280;56128;37.534;-122.308;2022-10-16T08:18:06;101284.47;;;15.34;89.86
69058;BME280;56128;37.534;-122.308;2022-10-16T08:20:33;101290.84;;;15.33;89.71
69058;BME280;56128;37.534;-122.308;2022-10-16T08:22:59;101292.84;;;15.31;90.13
69058;BME280;56128;37.534;-122.308;2022-10-16T08:25:26;101291.72;;;15.34;90.13
69058;BME280;56128;37.534;-122.308;2022-10-16T08:27:52;101290.59;;;15.36;90.11
69058;BME280;56128;37.534;-122.308;2022-10-16T08:30:20;101288.16;;;15.33;89.80
69058;BME280;56128;37.534;-122.308;2022-10-16T08:32:46;101279.63;;;15.28;90.05
69058;BME280;56128;37.534;-122.308;2022-10-16T08:35:13;101287.16;;;15.34;89.80
69058;BME280;56128;37.534;-122.308;2022-10-16T08:37:40;101293.44;;;15.35;90.36
69058;BME280;56128;37.534;-122.308;2022-10-16T08:40:18;101287.16;;;15.34;90.14
69058;BME280;56128;37.534;-122.308;2022-10-16T08:43:11;101289.84;;;15.34;89.89
69058;BME280;56128;37.534;-122.308;2022-10-16T08:48:53;101298.69;;;15.36;89.53
69058;BME280;56128;37.534;-122.308;2022-10-16T08:51:27;101297.81;;;15.36;89.87
69058;BME280;56128;37.534;-122.308;2022-10-16T08:53:58;101310.44;;;15.35;90.07
69058;BME280;56128;37.534;-122.308;2022-10-16T08:56:25;101308.72;;;15.34;89.93
69058;BME280;56128;37.534;-122.308;2022-10-16T08:58:53;101314.84;;;15.36;90.41
69058;BME280;56128;37.534;-122.308;2022-10-16T09:01:22;101310.31;;;15.37;90.31
69058;BME280;56128;37.534;-122.308;2022-10-16T09:04:30;101314.56;;;15.39;90.17
69058;BME280;56128;37.534;-122.308;2022-10-16T09:07:11;101319.13;;;15.39;90.03
69058;BME280;56128;37.534;-122.308;2022-10-16T09:09:56;101326.22;;;15.40;90.23
69058;BME280;56128;37.534;-122.308;2022-10-16T09:23:22;101336.13;;;15.39;89.72
69058;BME280;56128;37.534;-122.308;2022-10-16T09:25:51;101327.34;;;15.37;89.75
69058;BME280;56128;37.534;-122.308;2022-10-16T09:28:18;101339.56;;;15.41;89.83
69058;BME280;56128;37.534;-122.308;2022-10-16T09:30:46;101325.50;;;15.38;89.75
69058;BME280;56128;37.534;-122.308;2022-10-16T09:33:16;101322.53;;;15.41;89.91
69058;BME280;56128;37.534;-122.308;2022-10-16T09:35:49;101324.50;;;15.39;89.97
69058;BME280;56128;37.534;-122.308;2022-10-16T09:38:27;101325.63;;;15.36;89.55
69058;BME280;56128;37.534;-122.308;2022-10-16T09:40:57;101327.47;;;15.36;89.47
69058;BME280;56128;37.534;-122.308;2022-10-16T09:43:32;101304.59;;;15.30;89.67
69058;BME280;56128;37.534;-122.308;2022-10-16T09:46:05;101331.63;;;15.40;89.85
69058;BME280;56128;37.534;-122.308;2022-10-16T09:48:43;101334.31;;;15.40;89.18
69058;BME280;56128;37.534;-122.308;2022-10-16T09:51:22;101336.88;;;15.41;89.71
69058;BME280;56128;37.534;-122.308;2022-10-16T09:53:53;101337.84;;;15.40;89.63
69058;BME280;56128;37.534;-122.308;2022-10-16T09:56:27;101338.72;;;15.41;89.46
69058;BME280;56128;37.534;-122.308;2022-10-16T09:59:02;101325.50;;;15.38;90.19
69058;BME280;56128;37.534;-122.308;2022-10-16T10:04:12;101338.84;;;15.39;89.79
69058;BME280;56128;37.534;-122.308;2022-10-16T10:06:57;101337.84;;;15.40;89.49
69058;BME280;56128;37.534;-122.308;2022-10-16T10:09:26;101341.28;;;15.42;89.93
69058;BME280;56128;37.534;-122.308;2022-10-16T10:11:55;101345.56;;;15.45;89.59
69058;BME280;56128;37.534;-122.308;2022-10-16T10:14:36;101350.06;;;15.45;89.68
69058;BME280;56128;37.534;-122.308;2022-10-16T10:17:09;101362.44;;;15.47;89.41
69058;BME280;56128;37.534;-122.308;2022-10-16T10:25:12;101360.84;;;15.45;89.46
69058;BME280;56128;37.534;-122.308;2022-10-16T10:33:49;101358.16;;;15.45;89.15
69058;BME280;56128;37.534;-122.308;2022-10-16T10:36:48;101366.25;;;15.45;89.40
69058;BME280;56128;37.534;-122.308;2022-10-16T10:39:27;101358.91;;;15.47;89.19
69058;BME280;56128;37.534;-122.308;2022-10-16T10:42:16;101357.03;;;15.47;88.46
69058;BME280;56128;37.534;-122.308;2022-10-16T10:47:52;101348.09;;;15.47;88.67
69058;BME280;56128;37.534;-122.308;2022-10-16T10:50:39;101347.53;;;15.43;88.81
69058;BME280;56128;37.534;-122.308;2022-10-16T10:56:44;101357.19;;;15.46;88.45
69058;BME280;56128;37.534;-122.308;2022-10-16T10:59:32;101362.56;;;15.46;88.40
69058;BME280;56128;37.534;-122.308;2022-10-16T11:02:05;101361.72;;;15.45;88.42
69058;BME280;56128;37.534;-122.308;2022-10-16T11:04:58;101366.97;;;15.47;88.52
69058;BME280;56128;37.534;-122.308;2022-10-16T11:07:32;101355.88;;;15.40;88.75
69058;BME280;56128;37.534;-122.308;2022-10-16T11:10:24;101354.91;;;15.41;88.32
69058;BME280;56128;37.534;-122.308;2022-10-16T11:12:58;101361.59;;;15.47;88.85
69058;BME280;56128;37.534;-122.308;2022-10-16T11:15:36;101368.84;;;15.46;88.52
69058;BME280;56128;37.534;-122.308;2022-10-16T11:18:19;101368.84;;;15.46;88.71
69058;BME280;56128;37.534;-122.308;2022-10-16T11:20:53;101367.97;;;15.46;88.73
69058;BME280;56128;37.534;-122.308;2022-10-16T11:26:13;101375.91;;;15.47;88.99
69058;BME280;56128;37.534;-122.308;2022-10-16T11:28:50;101374.22;;;15.46;88.25
69058;BME280;56128;37.534;-122.308;2022-10-16T11:31:39;101373.34;;;15.46;88.21
69058;BME280;56128;37.534;-122.308;2022-10-16T11:34:28;101376.19;;;15.44;88.15
69058;BME280;56128;37.534;-122.308;2022-10-16T11:37:05;101375.59;;;15.40;88.29
69058;BME280;56128;37.534;-122.308;2022-10-16T11:39:35;101380.75;;;15.44;88.73
69058;BME280;56128;37.534;-122.308;2022-10-16T11:42:22;101379.03;;;15.42;88.66
69058;BME280;56128;37.534;-122.308;2022-10-16T11:48:17;101384.44;;;15.42;88.68
69058;BME280;56128;37.534;-122.308;2022-10-16T11:51:19;101384.44;;;15.42;88.37
69058;BME280;56128;37.534;-122.308;2022-10-16T11:53:59;101384.44;;;15.42;88.34
69058;BME280;56128;37.534;-122.308;2022-10-16T11:56:30;101390.94;;;15.40;87.88
69058;BME280;56128;37.534;-122.308;2022-10-16T11:59:13;101390.53;;;15.45;87.90
69058;BME280;56128;37.534;-122.308;2022-10-16T12:03:09;101396.06;;;15.43;88.14
69058;BME280;56128;37.534;-122.308;2022-10-16T12:04:53;101383.69;;;15.40;88.73
69058;BME280;56128;37.534;-122.308;2022-10-16T12:07:51;101390.94;;;15.40;88.25
69058;BME280;56128;37.534;-122.308;2022-10-16T12:10:28;101403.31;;;15.42;88.06
69058;BME280;56128;37.534;-122.308;2022-10-16T12:12:57;101389.38;;;15.37;87.99
69058;BME280;56128;37.534;-122.308;2022-10-16T12:15:27;101396.19;;;15.41;88.14
69058;BME280;56128;37.534;-122.308;2022-10-16T12:17:55;101400.75;;;15.41;88.50
69058;BME280;56128;37.534;-122.308;2022-10-16T12:20:32;101405.13;;;15.42;88.88
69058;BME280;56128;37.534;-122.308;2022-10-16T12:23:04;101410.53;;;15.42;89.31
69058;BME280;56128;37.534;-122.308;2022-10-16T12:25:38;101411.53;;;15.41;88.49
69058;BME280;56128;37.534;-122.308;2022-10-16T12:30:42;101412.25;;;15.43;88.22
69058;BME280;56128;37.534;-122.308;2022-10-16T12:33:27;101413.94;;;15.44;87.69
69058;BME280;56128;37.534;-122.308;2022-10-16T12:35:54;101416.78;;;15.42;88.33
69058;BME280;56128;37.534;-122.308;2022-10-16T12:38:28;101408.84;;;15.41;88.02
69058;BME280;56128;37.534;-122.308;2022-10-16T12:41:02;101417.50;;;15.45;88.43
69058;BME280;56128;37.534;-122.308;2022-10-16T12:43:36;101416.66;;;15.44;88.53
69058;BME280;56128;37.534;-122.308;2022-10-16T12:48:38;101407.97;;;15.40;88.51
69058;BME280;56128;37.534;-122.308;2022-10-16T12:51:33;101420.19;;;15.45;88.58
69058;BME280;56128;37.534;-122.308;2022-10-16T12:54:00;101421.19;;;15.44;88.52
69058;BME280;56128;37.534;-122.308;2022-10-16T13:07:52;101433.94;;;15.41;88.35
69058;BME280;56128;37.534;-122.308;2022-10-16T13:15:52;101435.81;;;15.41;88.40
69058;BME280;56128;37.534;-122.308;2022-10-16T13:27:45;101416.88;;;15.31;89.10
69058;BME280;56128;37.534;-122.308;2022-10-16T13:30:19;101422.97;;;15.33;89.04
69058;BME280;56128;37.534;-122.308;2022-10-16T13:32:58;101443.31;;;15.37;89.04
69058;BME280;56128;37.534;-122.308;2022-10-16T13:35:27;101438.91;;;15.36;88.80
69058;BME280;56128;37.534;-122.308;2022-10-16T13:38:12;101446.97;;;15.36;89.02
69058;BME280;56128;37.534;-122.308;2022-10-16T13:43:49;101445.25;;;15.35;89.68
69058;BME280;56128;37.534;-122.308;2022-10-16T13:46:19;101448.94;;;15.34;89.68
69058;BME280;56128;37.534;-122.308;2022-10-16T13:48:57;101442.56;;;15.35;89.41
69058;BME280;56128;37.534;-122.308;2022-10-16T13:51:23;101455.31;;;15.33;89.72
69058;BME280;56128;37.534;-122.308;2022-10-16T13:53:50;101455.31;;;15.33;89.63
69058;BME280;56128;37.534;-122.308;2022-10-16T13:56:18;101461.84;;;15.31;89.36
69058;BME280;56128;37.534;-122.308;2022-10-16T13:58:45;101466.97;;;15.34;89.64
69058;BME280;56128;37.534;-122.308;2022-10-16T14:01:25;101463.41;;;15.33;90.02
69058;BME280;56128;37.534;-122.308;2022-10-16T14:03:53;101453.03;;;15.29;90.33
69058;BME280;56128;37.534;-122.308;2022-10-16T14:06:26;101454.75;;;15.30;89.68
69058;BME280;56128;37.534;-122.308;2022-10-16T14:09:02;101450.44;;;15.27;90.24
69058;BME280;56128;37.534;-122.308;2022-10-16T14:11:30;101459.03;;;15.32;91.12
69058;BME280;56128;37.534;-122.308;2022-10-16T14:13:57;101451.00;;;15.21;89.88